Terminal Aerodrome Forecast
Issued by NWS Newport/Morehead City, NC

Home | Current Version | Previous Version | Text Only | Print | Product List | Glossary On
Versions: 1 2 3 4 5 6 7 8 9 10 11 12 13 14 15 16 17 18 19 20 21 22 23 24 25 26
000
FTUS42 KMHX 302349
TAFEWN
TAF
KEWN 302349Z 3100/3124 00000KT P6SM SCT120 OVC200
     FM310300 VRB03KT P6SM VCSH BKN050
     FM310600 VRB03KT 5SM -RA BR BKN015
     FM311400 VRB06KT P6SM -SHRA OVC030
     FM311800 15005KT P6SM VCSH OVC035=

USA.gov is the U.S. government's official web portal to all federal, state and local government web resources and services.